Time;durP1;ratioP1;P1;durP2;ratioP2;P2;SDS_P1;SDS_P2;PMS_P1;PMS_P2;Temp;Humidity;BMP_temperature;BMP_pressure;BME280_temperature;BME280_humidity;BME280_pressure;Samples;Min_cycle;Max_cycle;Signal;HPM_P1;HPM_P2
2023/10/24 00:01:58;;;;;;;11.85;6.70;;;;;;;;;;5063091;28;20036;-72
2023/10/24 00:04:29;;;;;;;13.82;6.95;;;;;;;;;;5062882;28;20773;-73
2023/10/24 00:06:59;;;;;;;11.00;5.82;;;;;;;;;;5061775;28;20063;-74
2023/10/24 00:09:29;;;;;;;11.07;6.68;;;;;;;;;;5063453;28;20688;-74
2023/10/24 00:12:28;;;;;;;16.05;6.32;;;;;;;;;;5063274;28;20412;-75
2023/10/24 00:15:15;;;;;;;12.02;5.95;;;;;;;;;;5062108;28;20502;-74
2023/10/24 00:17:46;;;;;;;11.30;6.85;;;;;;;;;;5062639;28;20075;-73
2023/10/24 00:20:17;;;;;;;9.02;6.25;;;;;;;;;;5063792;28;20056;-73
2023/10/24 00:22:47;;;;;;;11.00;6.38;;;;;;;;;;5063359;28;20497;-73
2023/10/24 00:25:18;;;;;;;10.40;6.65;;;;;;;;;;5062292;28;20051;-74
2023/10/24 00:27:49;;;;;;;13.25;6.70;;;;;;;;;;5061918;28;20047;-74
2023/10/24 00:30:20;;;;;;;9.35;7.32;;;;;;;;;;5062672;28;20048;-74
2023/10/24 00:32:50;;;;;;;12.23;6.75;;;;;;;;;;5061920;28;20372;-74
2023/10/24 00:35:21;;;;;;;11.93;6.82;;;;;;;;;;5061404;28;20047;-74
2023/10/24 00:38:28;;;;;;;10.10;6.65;;;;;;;;;;5062647;28;20045;-74
2023/10/24 00:40:58;;;;;;;10.88;6.45;;;;;;;;;;5060419;28;20052;-74
2023/10/24 00:43:28;;;;;;;13.18;6.72;;;;;;;;;;5063140;28;20049;-74
2023/10/24 00:46:15;;;;;;;12.18;7.53;;;;;;;;;;5062100;28;20043;-74
2023/10/24 00:48:53;;;;;;;13.05;6.93;;;;;;;;;;5061129;28;20060;-74
2023/10/24 00:51:24;;;;;;;11.73;6.97;;;;;;;;;;5062033;28;20055;-74
2023/10/24 00:53:55;;;;;;;12.48;7.15;;;;;;;;;;5076505;28;20063;-74
2023/10/24 00:56:28;;;;;;;10.25;6.85;;;;;;;;;;5062392;28;20369;-74
2023/10/24 00:59:01;;;;;;;16.88;6.65;;;;;;;;;;5062566;28;20036;-76
2023/10/24 01:01:32;;;;;;;13.90;6.53;;;;;;;;;;5062426;28;20049;-76
2023/10/24 01:04:03;;;;;;;11.73;6.78;;;;;;;;;;5061870;28;20036;-76
2023/10/24 01:06:35;;;;;;;11.73;6.30;;;;;;;;;;5060457;28;20056;-75
2023/10/24 01:09:06;;;;;;;14.20;7.07;;;;;;;;;;5061742;28;20048;-74
2023/10/24 01:11:36;;;;;;;13.93;6.57;;;;;;;;;;5061733;28;20048;-74
2023/10/24 01:14:10;;;;;;;14.45;6.97;;;;;;;;;;5061938;28;20044;-74
2023/10/24 01:16:44;;;;;;;15.43;6.65;;;;;;;;;;5060585;28;20044;-77
2023/10/24 01:19:15;;;;;;;12.73;6.43;;;;;;;;;;5062428;28;20044;-74
2023/10/24 01:21:47;;;;;;;11.32;7.03;;;;;;;;;;5061893;28;20044;-74
2023/10/24 01:24:18;;;;;;;9.90;6.70;;;;;;;;;;5060666;28;20052;-74
2023/10/24 01:26:50;;;;;;;16.05;6.45;;;;;;;;;;5059811;28;20052;-75
2023/10/24 01:29:21;;;;;;;12.45;6.10;;;;;;;;;;5061318;28;20059;-74
2023/10/24 01:31:51;;;;;;;11.95;6.30;;;;;;;;;;5061995;28;20043;-74
2023/10/24 01:34:22;;;;;;;12.20;6.32;;;;;;;;;;5062666;28;20037;-74
2023/10/24 01:37:15;;;;;;;14.55;6.63;;;;;;;;;;5060380;28;20487;-74
2023/10/24 01:39:47;;;;;;;14.93;7.07;;;;;;;;;;5063788;28;20044;-74
2023/10/24 01:42:17;;;;;;;16.25;7.05;;;;;;;;;;5066098;28;20402;-74
2023/10/24 01:44:47;;;;;;;10.82;6.97;;;;;;;;;;5066012;28;20048;-74
2023/10/24 01:47:18;;;;;;;11.25;7.03;;;;;;;;;;5065818;28;20044;-75
2023/10/24 01:49:48;;;;;;;14.48;7.25;;;;;;;;;;5065546;28;20053;-74
2023/10/24 01:52:37;;;;;;;13.88;6.95;;;;;;;;;;5066388;28;20470;-74
2023/10/24 01:55:08;;;;;;;13.75;7.38;;;;;;;;;;5065660;28;20048;-74
2023/10/24 01:57:39;;;;;;;14.45;7.00;;;;;;;;;;5047922;28;20056;-74
2023/10/24 02:00:11;;;;;;;12.02;6.75;;;;;;;;;;5063551;28;20048;-75
2023/10/24 02:02:41;;;;;;;12.10;6.28;;;;;;;;;;5065789;28;20509;-74
2023/10/24 02:05:12;;;;;;;14.40;6.65;;;;;;;;;;5064609;28;20048;-74
2023/10/24 02:07:42;;;;;;;10.40;6.53;;;;;;;;;;5066374;28;20051;-74
2023/10/24 02:10:14;;;;;;;18.23;7.00;;;;;;;;;;5065695;28;20513;-74
2023/10/24 02:12:46;;;;;;;15.82;6.60;;;;;;;;;;5063184;28;20052;-74
2023/10/24 02:15:17;;;;;;;10.13;6.95;;;;;;;;;;5063559;28;20051;-74
2023/10/24 02:17:47;;;;;;;15.95;6.25;;;;;;;;;;5065171;28;20040;-74
2023/10/24 02:20:18;;;;;;;13.55;6.80;;;;;;;;;;5065127;28;20052;-74
2023/10/24 02:22:49;;;;;;;13.85;6.22;;;;;;;;;;5064947;28;20045;-74
2023/10/24 02:25:19;;;;;;;14.85;6.70;;;;;;;;;;5062808;28;20517;-74
2023/10/24 02:27:50;;;;;;;17.40;6.47;;;;;;;;;;5065171;28;20044;-74
2023/10/24 02:30:21;;;;;;;14.60;6.93;;;;;;;;;;5064729;28;20044;-74
2023/10/24 02:32:51;;;;;;;10.57;6.60;;;;;;;;;;5065446;28;20048;-74
2023/10/24 02:35:21;;;;;;;11.30;6.90;;;;;;;;;;5064835;28;20048;-74
2023/10/24 02:37:54;;;;;;;12.38;6.88;;;;;;;;;;5064665;28;20052;-74
2023/10/24 02:40:25;;;;;;;16.35;7.22;;;;;;;;;;5064895;28;20045;-74
2023/10/24 02:42:55;;;;;;;12.38;7.00;;;;;;;;;;5064904;28;20051;-73
2023/10/24 02:45:26;;;;;;;19.85;6.53;;;;;;;;;;5063110;28;20040;-74
2023/10/24 02:47:56;;;;;;;13.63;6.82;;;;;;;;;;5047640;28;20047;-74
2023/10/24 02:50:27;;;;;;;15.50;6.95;;;;;;;;;;5063401;28;20048;-74
2023/10/24 02:53:00;;;;;;;12.63;6.88;;;;;;;;;;5064711;28;21076;-74
2023/10/24 02:55:33;;;;;;;12.57;6.55;;;;;;;;;;5064723;28;20045;-74
2023/10/24 02:58:04;;;;;;;11.13;6.68;;;;;;;;;;5063493;28;20067;-74
2023/10/24 03:01:21;;;;;;;16.23;8.00;;;;;;;;;;5079028;28;20052;-73
2023/10/24 03:03:52;;;;;;;12.88;6.40;;;;;;;;;;5062747;28;20053;-74
2023/10/24 03:06:25;;;;;;;15.60;6.90;;;;;;;;;;5064780;28;20044;-74
2023/10/24 03:08:57;;;;;;;19.23;6.85;;;;;;;;;;5064279;28;20391;-74
2023/10/24 03:11:28;;;;;;;13.50;6.65;;;;;;;;;;5062049;28;20048;-74
2023/10/24 03:13:58;;;;;;;16.38;7.13;;;;;;;;;;5065135;28;20063;-74
2023/10/24 03:16:28;;;;;;;11.88;6.65;;;;;;;;;;5064524;28;20041;-74
2023/10/24 03:18:59;;;;;;;9.63;6.60;;;;;;;;;;5064077;28;20805;-74
2023/10/24 03:21:30;;;;;;;15.73;7.05;;;;;;;;;;5063716;28;20044;-74
2023/10/24 03:24:00;;;;;;;14.20;7.10;;;;;;;;;;5063221;28;20055;-74
2023/10/24 03:26:30;;;;;;;13.57;7.80;;;;;;;;;;5064873;28;20047;-74
2023/10/24 03:29:00;;;;;;;16.92;7.10;;;;;;;;;;5063327;28;20044;-74
2023/10/24 03:31:30;;;;;;;20.58;7.70;;;;;;;;;;5079246;28;20056;-74
2023/10/24 03:34:01;;;;;;;14.63;8.57;;;;;;;;;;5063469;28;20052;-73
2023/10/24 03:36:32;;;;;;;21.83;10.23;;;;;;;;;;5063755;28;20494;-74
2023/10/24 03:39:03;;;;;;;24.83;12.25;;;;;;;;;;5063767;28;20044;-74
2023/10/24 03:41:34;;;;;;;15.52;10.32;;;;;;;;;;5063557;28;20051;-74
2023/10/24 03:44:07;;;;;;;24.30;12.43;;;;;;;;;;5061497;28;20055;-74
2023/10/24 03:46:37;;;;;;;21.55;12.18;;;;;;;;;;5064209;28;20044;-74
2023/10/24 03:49:08;;;;;;;25.92;14.40;;;;;;;;;;5063482;28;20071;-74
2023/10/24 03:51:41;;;;;;;28.48;15.02;;;;;;;;;;5063738;28;20037;-73
2023/10/24 03:54:14;;;;;;;27.33;14.68;;;;;;;;;;5061159;28;20040;-74
2023/10/24 03:56:57;;;;;;;32.17;15.57;;;;;;;;;;5063407;28;20044;-74
2023/10/24 03:59:29;;;;;;;30.40;15.20;;;;;;;;;;5063259;28;20048;-74
2023/10/24 04:02:00;;;;;;;33.20;15.25;;;;;;;;;;5063939;28;20049;-74
2023/10/24 04:04:50;;;;;;;32.17;14.73;;;;;;;;;;5061946;28;20051;-73
2023/10/24 04:07:21;;;;;;;26.38;14.60;;;;;;;;;;5063201;28;20741;-73
2023/10/24 04:09:52;;;;;;;28.90;13.80;;;;;;;;;;5063204;28;20056;-74
2023/10/24 04:12:22;;;;;;;25.55;13.50;;;;;;;;;;5063300;28;20044;-74
2023/10/24 04:14:53;;;;;;;28.40;14.65;;;;;;;;;;5063236;28;20040;-73
2023/10/24 04:17:22;;;;;;;24.05;14.02;;;;;;;;;;5062819;28;20143;-74
2023/10/24 04:19:53;;;;;;;24.80;13.77;;;;;;;;;;5063359;28;20040;-73
2023/10/24 04:22:24;;;;;;;25.90;14.05;;;;;;;;;;5063122;28;20044;-73
2023/10/24 04:24:55;;;;;;;25.27;13.48;;;;;;;;;;5063003;28;20051;-74
2023/10/24 04:27:25;;;;;;;30.77;14.18;;;;;;;;;;5062934;28;20057;-74
2023/10/24 04:29:56;;;;;;;19.80;11.88;;;;;;;;;;5063313;28;20041;-73
2023/10/24 04:33:11;;;;;;;23.20;13.57;;;;;;;;;;5063287;28;20505;-73
2023/10/24 04:36:03;;;;;;;26.85;13.85;;;;;;;;;;5063497;28;20491;-74
2023/10/24 04:39:16;;;;;;;27.25;13.65;;;;;;;;;;5062982;28;20049;-74
2023/10/24 04:42:07;;;;;;;21.98;12.43;;;;;;;;;;5062322;28;20529;-73
2023/10/24 04:44:38;;;;;;;22.67;12.15;;;;;;;;;;5062644;28;20052;-74
2023/10/24 04:47:11;;;;;;;22.40;12.20;;;;;;;;;;5062438;28;20036;-74
2023/10/24 04:49:41;;;;;;;21.25;12.02;;;;;;;;;;5062990;28;20389;-74
2023/10/24 04:52:12;;;;;;;24.98;12.50;;;;;;;;;;5063160;28;20044;-73
2023/10/24 04:54:43;;;;;;;25.50;11.85;;;;;;;;;;5062288;28;20124;-74
2023/10/24 04:57:14;;;;;;;23.85;12.73;;;;;;;;;;5062083;28;20036;-74
2023/10/24 04:59:44;;;;;;;22.60;12.07;;;;;;;;;;5062212;28;20064;-74
2023/10/24 05:02:14;;;;;;;22.75;12.23;;;;;;;;;;5062331;28;20051;-74
2023/10/24 05:04:44;;;;;;;23.25;11.85;;;;;;;;;;5062255;28;20037;-74
2023/10/24 05:07:21;;;;;;;19.08;11.77;;;;;;;;;;5061010;28;20079;-74
2023/10/24 05:10:06;;;;;;;19.58;12.43;;;;;;;;;;5062089;28;20056;-74
2023/10/24 05:12:49;;;;;;;21.40;10.50;;;;;;;;;;5061763;28;20044;-74
2023/10/24 05:15:32;;;;;;;22.27;11.57;;;;;;;;;;5061893;28;20052;-73
2023/10/24 05:18:16;;;;;;;19.60;10.82;;;;;;;;;;5061694;28;20045;-74
2023/10/24 05:21:00;;;;;;;21.40;11.45;;;;;;;;;;5062377;28;20752;-73
2023/10/24 05:23:43;;;;;;;22.38;11.23;;;;;;;;;;5061968;28;20052;-73
2023/10/24 05:26:26;;;;;;;21.48;11.48;;;;;;;;;;5061935;28;20052;-73
2023/10/24 05:29:10;;;;;;;23.35;10.32;;;;;;;;;;5062178;28;20115;-74
2023/10/24 05:31:53;;;;;;;20.65;10.48;;;;;;;;;;5061889;28;20037;-74
2023/10/24 05:34:59;;;;;;;23.10;10.68;;;;;;;;;;5061701;28;20044;-74
2023/10/24 05:37:45;;;;;;;28.83;11.55;;;;;;;;;;5061684;28;20040;-73
2023/10/24 05:41:06;;;;;;;28.38;10.95;;;;;;;;;;5062317;28;20052;-73
2023/10/24 05:43:39;;;;;;;24.77;10.98;;;;;;;;;;5062105;28;20048;-74
2023/10/24 05:46:09;;;;;;;24.63;11.80;;;;;;;;;;5062029;28;20041;-74
2023/10/24 05:48:40;;;;;;;25.23;11.25;;;;;;;;;;5062267;28;20045;-73
2023/10/24 05:51:20;;;;;;;23.65;10.70;;;;;;;;;;5062289;28;20557;-74
2023/10/24 05:54:21;;;;;;;24.20;10.68;;;;;;;;;;5062751;28;20051;-74
2023/10/24 05:56:51;;;;;;;26.40;10.85;;;;;;;;;;5062825;28;20518;-74
2023/10/24 05:59:22;;;;;;;27.73;10.63;;;;;;;;;;5061785;28;20735;-74
2023/10/24 06:01:52;;;;;;;27.02;11.15;;;;;;;;;;5061231;28;20711;-73
2023/10/24 06:04:23;;;;;;;21.50;10.05;;;;;;;;;;5061441;28;20502;-74
2023/10/24 06:06:53;;;;;;;22.98;10.43;;;;;;;;;;5061238;28;20407;-73
2023/10/24 06:09:24;;;;;;;30.38;11.43;;;;;;;;;;5061606;28;20399;-73
2023/10/24 06:11:54;;;;;;;25.27;11.02;;;;;;;;;;5061717;28;20582;-74
2023/10/24 06:14:24;;;;;;;24.88;10.80;;;;;;;;;;5061182;28;20052;-74
2023/10/24 06:16:55;;;;;;;30.40;12.63;;;;;;;;;;5061663;28;20348;-74
2023/10/24 06:19:25;;;;;;;26.55;10.80;;;;;;;;;;5061143;28;20395;-73
2023/10/24 06:21:55;;;;;;;27.52;11.88;;;;;;;;;;5061659;28;20049;-74
2023/10/24 06:24:27;;;;;;;29.70;11.40;;;;;;;;;;5060999;28;20510;-74
2023/10/24 06:27:01;;;;;;;25.00;11.65;;;;;;;;;;5064403;28;20059;-74
2023/10/24 06:29:33;;;;;;;23.98;10.90;;;;;;;;;;5062197;28;20103;-74
2023/10/24 06:32:04;;;;;;;27.63;11.70;;;;;;;;;;5065783;28;20346;-74
2023/10/24 06:34:34;;;;;;;26.05;11.25;;;;;;;;;;5065232;28;20040;-74
2023/10/24 06:37:05;;;;;;;22.52;11.77;;;;;;;;;;5062451;28;20053;-74
2023/10/24 06:39:35;;;;;;;31.25;11.30;;;;;;;;;;5064828;28;20052;-74
2023/10/24 06:42:06;;;;;;;28.13;11.68;;;;;;;;;;5065013;28;20052;-74
2023/10/24 06:44:37;;;;;;;30.92;11.88;;;;;;;;;;5064936;28;20044;-74
2023/10/24 06:47:08;;;;;;;29.08;12.80;;;;;;;;;;5065609;28;20655;-74
2023/10/24 06:49:38;;;;;;;27.23;11.98;;;;;;;;;;5064187;28;20048;-74
2023/10/24 06:52:11;;;;;;;24.73;11.93;;;;;;;;;;5065014;28;20049;-74
2023/10/24 06:54:42;;;;;;;34.05;12.75;;;;;;;;;;5063542;28;20044;-74
2023/10/24 06:57:12;;;;;;;26.63;11.63;;;;;;;;;;5065109;28;20048;-74
2023/10/24 06:59:43;;;;;;;23.73;10.80;;;;;;;;;;5064983;28;20600;-74
2023/10/24 07:02:14;;;;;;;19.60;10.85;;;;;;;;;;5064899;28;20543;-74
2023/10/24 07:04:45;;;;;;;25.23;11.20;;;;;;;;;;5065078;28;20040;-73
2023/10/24 07:07:15;;;;;;;30.70;11.82;;;;;;;;;;5064810;28;20061;-74
2023/10/24 07:09:46;;;;;;;23.33;10.80;;;;;;;;;;5064173;28;20399;-74
2023/10/24 07:12:17;;;;;;;30.40;11.40;;;;;;;;;;5079253;28;20055;-74
2023/10/24 07:14:52;;;;;;;27.48;11.38;;;;;;;;;;5064308;28;20044;-74
2023/10/24 07:17:22;;;;;;;26.58;11.40;;;;;;;;;;5064313;28;20390;-74
2023/10/24 07:19:53;;;;;;;22.00;10.23;;;;;;;;;;5063406;28;20044;-74
2023/10/24 07:22:24;;;;;;;23.02;11.63;;;;;;;;;;5063999;28;20052;-74
2023/10/24 07:25:23;;;;;;;22.77;10.98;;;;;;;;;;5064072;28;20044;-74
2023/10/24 07:27:59;;;;;;;23.42;12.23;;;;;;;;;;5064174;28;20406;-74
2023/10/24 07:30:30;;;;;;;29.80;12.45;;;;;;;;;;5063951;28;20055;-74
2023/10/24 07:33:01;;;;;;;26.05;12.40;;;;;;;;;;5062055;28;20514;-74
2023/10/24 07:35:40;;;;;;;22.08;11.18;;;;;;;;;;5063617;28;20055;-74
2023/10/24 07:38:11;;;;;;;26.55;11.00;;;;;;;;;;5063730;28;20045;-74
2023/10/24 07:40:41;;;;;;;29.35;12.57;;;;;;;;;;5064252;28;20048;-81
2023/10/24 07:43:12;;;;;;;29.50;13.48;;;;;;;;;;5063716;28;20055;-74
2023/10/24 07:45:42;;;;;;;27.00;12.20;;;;;;;;;;5063866;28;20044;-74
2023/10/24 07:48:12;;;;;;;30.60;11.60;;;;;;;;;;5064287;28;20029;-74
2023/10/24 07:50:54;;;;;;;29.73;12.32;;;;;;;;;;5079527;28;20410;-73
2023/10/24 07:53:26;;;;;;;27.48;11.80;;;;;;;;;;5063787;28;20051;-74
2023/10/24 07:55:56;;;;;;;23.13;10.93;;;;;;;;;;5063685;28;20032;-74
2023/10/24 07:58:26;;;;;;;24.35;11.07;;;;;;;;;;5062924;28;20411;-74
2023/10/24 08:00:56;;;;;;;21.92;11.13;;;;;;;;;;5063437;28;20043;-74
2023/10/24 08:04:01;;;;;;;28.58;12.85;;;;;;;;;;5063405;28;20048;-73
2023/10/24 08:06:32;;;;;;;26.20;11.77;;;;;;;;;;5062749;28;20487;-74
2023/10/24 08:09:02;;;;;;;27.70;11.68;;;;;;;;;;5061656;28;20056;-74
2023/10/24 08:11:32;;;;;;;27.25;12.45;;;;;;;;;;5078488;28;20044;-74
2023/10/24 08:14:03;;;;;;;26.35;11.55;;;;;;;;;;5063028;28;20044;-74
2023/10/24 08:16:33;;;;;;;27.52;12.23;;;;;;;;;;5063775;28;20054;-74
2023/10/24 08:19:03;;;;;;;25.60;11.68;;;;;;;;;;5063396;28;20044;-74
2023/10/24 08:21:34;;;;;;;25.42;12.60;;;;;;;;;;5062915;28;20040;-74
2023/10/24 08:24:05;;;;;;;22.15;12.35;;;;;;;;;;5063557;28;20052;-74
2023/10/24 08:26:36;;;;;;;26.45;11.90;;;;;;;;;;5063789;28;20063;-74
2023/10/24 08:29:06;;;;;;;19.65;10.98;;;;;;;;;;5061823;28;20483;-74
2023/10/24 08:31:36;;;;;;;26.45;11.57;;;;;;;;;;5063111;28;20045;-74
2023/10/24 08:34:28;;;;;;;24.55;11.98;;;;;;;;;;5062914;28;20044;-74
2023/10/24 08:36:59;;;;;;;25.63;11.73;;;;;;;;;;5062848;28;20044;-74
2023/10/24 08:39:32;;;;;;;19.25;10.00;;;;;;;;;;5062659;28;20044;-73
2023/10/24 08:42:04;;;;;;;30.05;11.90;;;;;;;;;;5062870;28;20047;-73
2023/10/24 08:45:18;;;;;;;32.38;12.00;;;;;;;;;;5060302;28;20065;-73
2023/10/24 08:47:53;;;;;;;27.20;11.45;;;;;;;;;;5060763;28;20059;-73
2023/10/24 08:50:24;;;;;;;23.00;10.93;;;;;;;;;;5062342;28;20036;-73
2023/10/24 08:52:54;;;;;;;27.48;11.68;;;;;;;;;;5062962;28;20538;-73
2023/10/24 08:55:26;;;;;;;24.05;11.07;;;;;;;;;;5063041;28;20426;-74
2023/10/24 08:58:00;;;;;;;20.48;10.60;;;;;;;;;;5061285;28;20114;-74
2023/10/24 09:00:37;;;;;;;29.33;10.70;;;;;;;;;;5062888;28;20490;-74
2023/10/24 09:03:07;;;;;;;22.75;10.40;;;;;;;;;;5062793;28;20055;-75
2023/10/24 09:05:41;;;;;;;19.50;9.85;;;;;;;;;;5062174;28;20487;-74
2023/10/24 09:08:13;;;;;;;16.85;9.57;;;;;;;;;;5061985;28;20037;-74
2023/10/24 09:10:48;;;;;;;25.83;10.20;;;;;;;;;;5061968;28;20055;-74
2023/10/24 09:13:18;;;;;;;23.17;10.52;;;;;;;;;;5062484;28;20043;-74
2023/10/24 09:16:09;;;;;;;19.48;8.70;;;;;;;;;;5061496;28;20044;-74
2023/10/24 09:18:41;;;;;;;21.13;9.13;;;;;;;;;;5061630;28;20041;-74
2023/10/24 09:21:12;;;;;;;16.15;10.02;;;;;;;;;;5062493;28;20041;-75
2023/10/24 09:23:42;;;;;;;20.20;11.13;;;;;;;;;;5062198;28;20044;-74
2023/10/24 09:26:12;;;;;;;20.30;9.75;;;;;;;;;;5062433;28;20055;-74
2023/10/24 09:28:43;;;;;;;18.60;10.18;;;;;;;;;;5062567;28;20510;-74
2023/10/24 09:31:14;;;;;;;20.15;10.30;;;;;;;;;;5062025;28;20044;-73
2023/10/24 09:33:46;;;;;;;23.20;10.52;;;;;;;;;;5062407;28;20884;-74
2023/10/24 09:36:27;;;;;;;22.52;11.60;;;;;;;;;;5061618;28;20514;-74
2023/10/24 09:39:20;;;;;;;30.75;12.10;;;;;;;;;;5061787;28;20387;-82
2023/10/24 09:41:51;;;;;;;23.65;11.15;;;;;;;;;;5046106;28;20041;-75
2023/10/24 09:44:22;;;;;;;20.42;10.77;;;;;;;;;;5060804;28;20059;-74
2023/10/24 09:46:53;;;;;;;21.80;10.93;;;;;;;;;;5059089;28;20044;-74
2023/10/24 09:49:25;;;;;;;23.00;12.07;;;;;;;;;;5059235;28;20052;-74
2023/10/24 09:51:56;;;;;;;20.23;8.65;;;;;;;;;;5059517;28;20055;-75
2023/10/24 09:54:27;;;;;;;16.08;7.82;;;;;;;;;;5059404;28;20395;-74
2023/10/24 09:57:21;;;;;;;17.77;8.55;;;;;;;;;;5058967;28;20041;-75
2023/10/24 10:00:23;;;;;;;21.92;9.63;;;;;;;;;;5061674;28;20055;-74
2023/10/24 10:02:58;;;;;;;18.17;9.77;;;;;;;;;;5062952;28;20383;-74
2023/10/24 10:05:30;;;;;;;14.80;8.80;;;;;;;;;;5062658;28;20049;-74
2023/10/24 10:08:02;;;;;;;16.05;8.57;;;;;;;;;;5063278;28;20392;-74
2023/10/24 10:10:36;;;;;;;30.38;12.05;;;;;;;;;;5063893;28;20052;-74
2023/10/24 10:13:11;;;;;;;18.80;8.70;;;;;;;;;;5063178;28;20050;-75
2023/10/24 10:15:50;;;;;;;17.25;8.48;;;;;;;;;;5062849;28;20700;-74
2023/10/24 10:18:46;;;;;;;21.20;9.02;;;;;;;;;;5062967;28;20044;-74
2023/10/24 10:21:34;;;;;;;15.07;9.10;;;;;;;;;;5063301;28;20044;-74
2023/10/24 10:24:46;;;;;;;17.27;8.30;;;;;;;;;;5062471;28;20036;-74
2023/10/24 10:27:42;;;;;;;22.63;9.65;;;;;;;;;;5058339;28;20806;-74
2023/10/24 10:30:55;;;;;;;15.55;7.85;;;;;;;;;;5062520;28;20045;-73
2023/10/24 10:33:45;;;;;;;18.70;8.40;;;;;;;;;;5060687;28;20061;-80
2023/10/24 10:36:19;;;;;;;15.75;8.27;;;;;;;;;;5062596;28;20041;-74
2023/10/24 10:39:17;;;;;;;14.90;8.82;;;;;;;;;;5062320;28;20059;-73
2023/10/24 10:42:55;;;;;;;17.35;8.93;;;;;;;;;;5061987;28;20056;-74
2023/10/24 10:45:30;;;;;;;17.83;9.25;;;;;;;;;;5062962;28;20643;-74
2023/10/24 10:48:05;;;;;;;15.30;8.30;;;;;;;;;;5062422;28;20044;-74
2023/10/24 10:50:38;;;;;;;17.80;9.63;;;;;;;;;;5062967;28;20650;-74
2023/10/24 10:53:23;;;;;;;24.42;9.32;;;;;;;;;;5062090;28;20537;-75
2023/10/24 10:56:11;;;;;;;18.77;9.02;;;;;;;;;;5062396;28;20064;-76
2023/10/24 10:59:02;;;;;;;17.95;8.43;;;;;;;;;;5060245;28;20044;-74
2023/10/24 11:01:54;;;;;;;14.90;8.43;;;;;;;;;;5061895;28;20398;-73
2023/10/24 11:04:24;;;;;;;14.57;9.18;;;;;;;;;;5061923;28;20498;-73
2023/10/24 11:06:56;;;;;;;15.07;8.32;;;;;;;;;;5059931;28;20060;-73
2023/10/24 11:09:38;;;;;;;16.27;8.60;;;;;;;;;;5061538;28;20507;-73
2023/10/24 11:12:21;;;;;;;16.55;8.13;;;;;;;;;;5060649;28;20049;-73
2023/10/24 11:15:07;;;;;;;17.67;7.28;;;;;;;;;;5060348;28;20060;-73
2023/10/24 11:17:37;;;;;;;14.15;8.40;;;;;;;;;;5062186;28;20399;-73
2023/10/24 11:20:09;;;;;;;13.77;7.93;;;;;;;;;;5061537;28;20040;-73
2023/10/24 11:22:42;;;;;;;16.73;7.88;;;;;;;;;;5059428;28;20068;-73
2023/10/24 11:25:15;;;;;;;13.00;8.23;;;;;;;;;;5061330;28;20040;-73
2023/10/24 11:27:49;;;;;;;19.27;7.65;;;;;;;;;;5060110;28;20053;-74
2023/10/24 11:30:21;;;;;;;18.33;8.95;;;;;;;;;;5061628;28;20055;-74
2023/10/24 11:32:52;;;;;;;14.82;8.20;;;;;;;;;;5060495;28;20048;-74
2023/10/24 11:35:23;;;;;;;12.93;7.63;;;;;;;;;;5060798;28;20048;-75
2023/10/24 11:37:53;;;;;;;16.83;8.25;;;;;;;;;;5061114;28;20499;-74
2023/10/24 11:40:24;;;;;;;19.45;8.70;;;;;;;;;;5061304;28;20057;-74
2023/10/24 11:43:08;;;;;;;15.75;8.45;;;;;;;;;;5061171;28;20040;-74
2023/10/24 11:46:28;;;;;;;13.82;8.70;;;;;;;;;;5060427;28;20049;-74
2023/10/24 11:48:58;;;;;;;19.88;9.15;;;;;;;;;;5061050;28;20044;-74
2023/10/24 11:51:29;;;;;;;15.52;8.75;;;;;;;;;;5061227;28;20507;-73
2023/10/24 11:54:09;;;;;;;13.95;8.18;;;;;;;;;;5061319;28;20052;-74
2023/10/24 11:57:10;;;;;;;13.32;8.77;;;;;;;;;;5061270;28;20063;-73
2023/10/24 11:59:40;;;;;;;13.65;8.15;;;;;;;;;;5060867;28;20498;-75
2023/10/24 12:05:21;;;;;;;13.93;8.00;;;;;;;;;;5060430;28;20048;-74
2023/10/24 12:07:53;;;;;;;16.90;8.07;;;;;;;;;;5060722;28;20041;-74
2023/10/24 12:10:24;;;;;;;12.70;8.30;;;;;;;;;;5058668;28;20048;-73
2023/10/24 12:12:58;;;;;;;13.40;8.40;;;;;;;;;;5060750;28;20048;-74
2023/10/24 12:15:33;;;;;;;12.27;7.38;;;;;;;;;;5060186;28;20056;-74
2023/10/24 12:18:05;;;;;;;14.57;7.85;;;;;;;;;;5060487;28;20499;-81
2023/10/24 12:20:35;;;;;;;19.92;8.93;;;;;;;;;;5060746;28;20487;-74
2023/10/24 12:23:45;;;;;;;17.52;9.75;;;;;;;;;;5060195;28;20044;-74
2023/10/24 12:26:17;;;;;;;18.15;9.90;;;;;;;;;;5058698;28;20059;-74
2023/10/24 12:36:49;;;;;;;26.77;11.23;;;;;;;;;;5060204;28;20501;-74
2023/10/24 12:40:37;;;;;;;18.70;10.32;;;;;;;;;;5060533;28;20052;-74
2023/10/24 12:44:12;;;;;;;20.30;10.38;;;;;;;;;;5060248;28;20040;-74
2023/10/24 12:46:44;;;;;;;21.95;10.80;;;;;;;;;;5059612;28;20099;-77
2023/10/24 12:49:16;;;;;;;24.60;11.88;;;;;;;;;;5060406;28;20048;-74
2023/10/24 12:52:19;;;;;;;25.48;11.80;;;;;;;;;;5057601;28;20053;-74
2023/10/24 12:54:50;;;;;;;25.75;13.52;;;;;;;;;;5059873;28;20103;-76
2023/10/24 12:58:23;;;;;;;21.45;12.27;;;;;;;;;;5059994;28;20040;-74
2023/10/24 13:02:32;;;;;;;20.65;11.07;;;;;;;;;;5063717;28;20719;-74
2023/10/24 13:06:38;;;;;;;25.73;12.93;;;;;;;;;;5063773;28;20052;-74
2023/10/24 13:10:07;;;;;;;28.30;13.40;;;;;;;;;;5060180;28;20415;-74
2023/10/24 13:12:43;;;;;;;27.77;14.30;;;;;;;;;;5059492;28;20505;-74
2023/10/24 13:15:18;;;;;;;24.85;12.73;;;;;;;;;;5059582;28;20589;-75
2023/10/24 13:17:48;;;;;;;22.73;11.70;;;;;;;;;;5059640;28;20115;-74
2023/10/24 13:21:21;;;;;;;20.33;10.57;;;;;;;;;;5061516;28;20048;-74
2023/10/24 13:27:37;;;;;;;23.17;11.52;;;;;;;;;;5059832;28;20053;-76
2023/10/24 13:31:28;;;;;;;30.23;13.80;;;;;;;;;;5059447;28;20510;-75
2023/10/24 13:34:56;;;;;;;24.50;12.10;;;;;;;;;;5059419;28;20041;-74
2023/10/24 13:38:24;;;;;;;30.35;14.18;;;;;;;;;;5059308;28;20044;-73
2023/10/24 13:41:52;;;;;;;29.98;12.88;;;;;;;;;;5059842;28;20686;-73
2023/10/24 13:45:21;;;;;;;28.48;14.02;;;;;;;;;;5059752;28;20040;-74
2023/10/24 13:48:48;;;;;;;27.77;13.25;;;;;;;;;;5059375;28;20485;-74
2023/10/24 13:52:16;;;;;;;29.42;13.38;;;;;;;;;;5059558;28;20048;-74
2023/10/24 13:55:56;;;;;;;28.08;12.32;;;;;;;;;;5063069;28;20048;-73
2023/10/24 13:59:24;;;;;;;25.48;12.73;;;;;;;;;;5062123;28;20044;-73
2023/10/24 14:02:52;;;;;;;24.98;12.60;;;;;;;;;;5061464;28;20487;-74
2023/10/24 14:06:20;;;;;;;35.63;18.60;;;;;;;;;;5062114;28;20394;-73
2023/10/24 14:09:48;;;;;;;26.55;12.73;;;;;;;;;;5061102;28;20419;-74
2023/10/24 14:13:16;;;;;;;26.90;10.93;;;;;;;;;;5062186;28;20041;-74
2023/10/24 14:16:45;;;;;;;26.10;12.18;;;;;;;;;;5061966;28;20045;-74
2023/10/24 14:20:20;;;;;;;20.98;9.73;;;;;;;;;;5062077;28;20380;-73
2023/10/24 14:23:48;;;;;;;20.42;8.73;;;;;;;;;;5062424;28;20028;-74
2023/10/24 14:27:13;;;;;;;21.58;9.57;;;;;;;;;;5061891;28;20575;-74
2023/10/24 14:29:57;;;;;;;17.88;8.93;;;;;;;;;;5061084;28;20044;-74
2023/10/24 14:32:41;;;;;;;16.80;8.82;;;;;;;;;;5060680;28;20041;-75
2023/10/24 14:35:24;;;;;;;34.25;11.18;;;;;;;;;;5060916;28;20067;-74
2023/10/24 14:38:07;;;;;;;16.63;8.95;;;;;;;;;;5061622;28;20051;-75
2023/10/24 14:40:51;;;;;;;15.70;10.07;;;;;;;;;;5059425;28;20418;-75
2023/10/24 14:48:31;;;;;;;18.42;8.75;;;;;;;;;;5065254;28;20040;-74
2023/10/24 14:51:50;;;;;;;17.58;8.98;;;;;;;;;;5069636;28;20037;-82
2023/10/24 14:54:52;;;;;;;12.15;8.85;;;;;;;;;;5064372;28;20407;-75
2023/10/24 14:57:23;;;;;;;15.13;8.43;;;;;;;;;;5064691;28;20036;-74
2023/10/24 14:59:52;;;;;;;12.63;8.15;;;;;;;;;;5064506;28;20041;-75
2023/10/24 15:02:24;;;;;;;11.07;7.40;;;;;;;;;;5065734;28;20036;-82
2023/10/24 15:04:54;;;;;;;14.30;7.55;;;;;;;;;;5065149;28;20041;-76
2023/10/24 15:07:25;;;;;;;10.90;7.05;;;;;;;;;;5064734;28;20390;-75
2023/10/24 15:09:55;;;;;;;10.98;7.40;;;;;;;;;;5063088;28;20053;-75
2023/10/24 15:12:26;;;;;;;8.93;6.25;;;;;;;;;;5062498;28;20056;-75
2023/10/24 15:14:57;;;;;;;10.07;7.13;;;;;;;;;;5065095;28;20152;-75
2023/10/24 15:17:28;;;;;;;12.98;7.15;;;;;;;;;;5064267;28;20043;-74
2023/10/24 15:19:58;;;;;;;11.10;7.50;;;;;;;;;;5064707;28;20044;-74
2023/10/24 15:22:29;;;;;;;13.52;7.45;;;;;;;;;;5063903;28;20044;-75
2023/10/24 15:25:00;;;;;;;11.68;7.63;;;;;;;;;;5064267;28;20075;-82
2023/10/24 15:27:31;;;;;;;10.85;6.70;;;;;;;;;;5064458;28;20041;-75
2023/10/24 15:30:02;;;;;;;10.43;6.70;;;;;;;;;;5064344;28;20413;-76
2023/10/24 15:32:32;;;;;;;12.48;6.95;;;;;;;;;;5064220;28;20036;-75
2023/10/24 15:35:03;;;;;;;13.38;6.60;;;;;;;;;;5064740;28;20491;-74
2023/10/24 15:37:44;;;;;;;11.02;6.40;;;;;;;;;;5062791;28;20608;-74
2023/10/24 15:40:39;;;;;;;12.05;6.20;;;;;;;;;;5064300;28;20422;-74
2023/10/24 15:43:21;;;;;;;10.65;6.85;;;;;;;;;;5064341;28;20044;-74
2023/10/24 15:46:08;;;;;;;8.00;6.30;;;;;;;;;;5063981;28;20040;-75
2023/10/24 15:49:17;;;;;;;11.02;5.97;;;;;;;;;;5063858;28;20695;-75
2023/10/24 15:51:58;;;;;;;14.10;6.68;;;;;;;;;;5063711;28;20033;-75
2023/10/24 15:54:29;;;;;;;10.25;5.85;;;;;;;;;;5063750;28;20039;-75
2023/10/24 15:57:20;;;;;;;14.30;6.38;;;;;;;;;;5062727;28;20037;-79
2023/10/24 15:59:56;;;;;;;8.23;5.25;;;;;;;;;;5059911;28;20044;-75